New Centerville, Idaho
Current Conditions -  °F | °C
As of 10:53 AM on Saturday 20 Dec 2014 (Local Time) from KBOI Reporting Station
Light Rain Light Rain  
Wind Chill:   Ceiling: 3000
Heat Index:   Visibility: 10mi
Dew Point:   Wind: 15mph
Humidity: 85%   Direction: 120°ESE
Pressure: 30.01"   Gusts: 22mph
Location:  43.8008°N, 115.834°W
Report Text: KBOI 201753Z 12013G19KT 10SM -RA BKN030 OVC070 06/03 A3001 RMK AO2 SLP170 P0001 60009 T00560033 10056 20044 56006
Loading
Personal Weather Stations






























Interactive Weather Map New forecast layout! Learn more

10-Day Weather Forecast

Advertisements
Track Severe Weather on mobile